sensor_id;sensor_type;location;lat;lon;timestamp;P1;durP1;ratioP1;P2;durP2;ratioP2
75628;SDS011;64213;46.452;16.994;2023-04-23T00:02:23;11.52;;;5.12;;
75628;SDS011;64213;46.452;16.994;2023-04-23T00:05:27;11.27;;;4.75;;
75628;SDS011;64213;46.452;16.994;2023-04-23T00:08:31;12.47;;;5.13;;
75628;SDS011;64213;46.452;16.994;2023-04-23T00:11:33;10.70;;;4.70;;
75628;SDS011;64213;46.452;16.994;2023-04-23T00:14:35;13.30;;;5.15;;
75628;SDS011;64213;46.452;16.994;2023-04-23T00:17:38;12.07;;;5.15;;
75628;SDS011;64213;46.452;16.994;2023-04-23T00:20:41;12.70;;;5.20;;
75628;SDS011;64213;46.452;16.994;2023-04-23T00:23:44;12.17;;;5.20;;
75628;SDS011;64213;46.452;16.994;2023-04-23T00:26:46;12.43;;;5.30;;
75628;SDS011;64213;46.452;16.994;2023-04-23T00:29:48;11.00;;;5.15;;
75628;SDS011;64213;46.452;16.994;2023-04-23T00:32:51;14.85;;;6.00;;
75628;SDS011;64213;46.452;16.994;2023-04-23T00:35:53;11.68;;;5.30;;
75628;SDS011;64213;46.452;16.994;2023-04-23T00:38:56;11.47;;;5.13;;
75628;SDS011;64213;46.452;16.994;2023-04-23T00:41:58;14.17;;;5.40;;
75628;SDS011;64213;46.452;16.994;2023-04-23T00:45:02;14.87;;;5.35;;
75628;SDS011;64213;46.452;16.994;2023-04-23T00:48:06;11.48;;;5.32;;
75628;SDS011;64213;46.452;16.994;2023-04-23T00:51:09;13.80;;;5.60;;
75628;SDS011;64213;46.452;16.994;2023-04-23T00:54:12;14.83;;;4.97;;
75628;SDS011;64213;46.452;16.994;2023-04-23T00:57:14;13.43;;;5.43;;
75628;SDS011;64213;46.452;16.994;2023-04-23T01:00:17;12.55;;;5.12;;
75628;SDS011;64213;46.452;16.994;2023-04-23T01:03:25;12.70;;;5.55;;
75628;SDS011;64213;46.452;16.994;2023-04-23T01:06:28;14.95;;;5.65;;
75628;SDS011;64213;46.452;16.994;2023-04-23T01:09:32;15.73;;;6.03;;
75628;SDS011;64213;46.452;16.994;2023-04-23T01:12:34;11.77;;;5.30;;
75628;SDS011;64213;46.452;16.994;2023-04-23T01:15:37;11.68;;;5.68;;
75628;SDS011;64213;46.452;16.994;2023-04-23T01:18:39;13.80;;;5.35;;
75628;SDS011;64213;46.452;16.994;2023-04-23T01:21:41;14.63;;;5.72;;
75628;SDS011;64213;46.452;16.994;2023-04-23T01:24:43;15.93;;;6.10;;
75628;SDS011;64213;46.452;16.994;2023-04-23T01:27:46;16.37;;;5.93;;
75628;SDS011;64213;46.452;16.994;2023-04-23T01:30:49;12.20;;;6.00;;
75628;SDS011;64213;46.452;16.994;2023-04-23T01:33:52;14.75;;;5.93;;
75628;SDS011;64213;46.452;16.994;2023-04-23T01:36:56;13.00;;;5.30;;
75628;SDS011;64213;46.452;16.994;2023-04-23T01:39:59;14.63;;;5.73;;
75628;SDS011;64213;46.452;16.994;2023-04-23T01:43:01;14.63;;;5.90;;
75628;SDS011;64213;46.452;16.994;2023-04-23T01:46:04;14.10;;;5.32;;
75628;SDS011;64213;46.452;16.994;2023-04-23T01:49:07;14.48;;;5.90;;
75628;SDS011;64213;46.452;16.994;2023-04-23T01:52:09;11.93;;;5.82;;
75628;SDS011;64213;46.452;16.994;2023-04-23T01:55:11;15.43;;;6.03;;
75628;SDS011;64213;46.452;16.994;2023-04-23T01:58:14;12.60;;;5.73;;
75628;SDS011;64213;46.452;16.994;2023-04-23T02:01:16;14.70;;;5.40;;
75628;SDS011;64213;46.452;16.994;2023-04-23T02:04:19;12.98;;;5.40;;
75628;SDS011;64213;46.452;16.994;2023-04-23T02:07:21;13.93;;;6.57;;
75628;SDS011;64213;46.452;16.994;2023-04-23T02:10:24;11.83;;;5.67;;
75628;SDS011;64213;46.452;16.994;2023-04-23T02:13:26;12.27;;;5.00;;
75628;SDS011;64213;46.452;16.994;2023-04-23T02:16:28;12.77;;;5.37;;
75628;SDS011;64213;46.452;16.994;2023-04-23T02:19:31;11.45;;;5.20;;
75628;SDS011;64213;46.452;16.994;2023-04-23T02:22:36;12.10;;;5.87;;
75628;SDS011;64213;46.452;16.994;2023-04-23T02:25:39;14.17;;;5.63;;
75628;SDS011;64213;46.452;16.994;2023-04-23T02:28:41;12.17;;;5.43;;
75628;SDS011;64213;46.452;16.994;2023-04-23T02:31:43;13.93;;;5.95;;
75628;SDS011;64213;46.452;16.994;2023-04-23T02:34:45;14.07;;;5.60;;
75628;SDS011;64213;46.452;16.994;2023-04-23T02:37:47;14.13;;;5.85;;
75628;SDS011;64213;46.452;16.994;2023-04-23T02:40:49;12.43;;;5.67;;
75628;SDS011;64213;46.452;16.994;2023-04-23T02:43:52;11.67;;;5.27;;
75628;SDS011;64213;46.452;16.994;2023-04-23T02:46:54;11.75;;;5.82;;
75628;SDS011;64213;46.452;16.994;2023-04-23T02:49:57;15.73;;;5.85;;
75628;SDS011;64213;46.452;16.994;2023-04-23T02:52:59;14.48;;;5.68;;
75628;SDS011;64213;46.452;16.994;2023-04-23T02:56:01;13.87;;;5.97;;
75628;SDS011;64213;46.452;16.994;2023-04-23T02:59:04;13.03;;;5.77;;
75628;SDS011;64213;46.452;16.994;2023-04-23T03:02:07;12.23;;;5.95;;
75628;SDS011;64213;46.452;16.994;2023-04-23T03:05:09;12.70;;;5.60;;
75628;SDS011;64213;46.452;16.994;2023-04-23T03:08:11;12.27;;;5.40;;
75628;SDS011;64213;46.452;16.994;2023-04-23T03:11:13;13.60;;;6.07;;
75628;SDS011;64213;46.452;16.994;2023-04-23T03:14:15;13.17;;;5.87;;
75628;SDS011;64213;46.452;16.994;2023-04-23T03:17:17;12.48;;;5.40;;
75628;SDS011;64213;46.452;16.994;2023-04-23T03:20:19;13.23;;;6.12;;
75628;SDS011;64213;46.452;16.994;2023-04-23T03:23:21;11.73;;;5.40;;
75628;SDS011;64213;46.452;16.994;2023-04-23T03:26:23;12.10;;;5.43;;
75628;SDS011;64213;46.452;16.994;2023-04-23T03:29:25;12.13;;;5.70;;
75628;SDS011;64213;46.452;16.994;2023-04-23T03:32:28;13.07;;;5.70;;
75628;SDS011;64213;46.452;16.994;2023-04-23T03:35:30;12.57;;;5.57;;
75628;SDS011;64213;46.452;16.994;2023-04-23T03:38:32;16.95;;;6.55;;
75628;SDS011;64213;46.452;16.994;2023-04-23T03:41:34;14.97;;;6.57;;
75628;SDS011;64213;46.452;16.994;2023-04-23T03:44:36;15.57;;;6.40;;
75628;SDS011;64213;46.452;16.994;2023-04-23T03:47:38;19.02;;;7.05;;
75628;SDS011;64213;46.452;16.994;2023-04-23T03:50:40;16.08;;;7.12;;
75628;SDS011;64213;46.452;16.994;2023-04-23T03:53:43;15.50;;;7.20;;
75628;SDS011;64213;46.452;16.994;2023-04-23T03:56:46;17.43;;;6.83;;
75628;SDS011;64213;46.452;16.994;2023-04-23T03:59:48;15.07;;;7.40;;
75628;SDS011;64213;46.452;16.994;2023-04-23T04:02:50;15.05;;;6.82;;
75628;SDS011;64213;46.452;16.994;2023-04-23T04:05:52;17.42;;;6.95;;
75628;SDS011;64213;46.452;16.994;2023-04-23T04:08:54;15.98;;;6.35;;
75628;SDS011;64213;46.452;16.994;2023-04-23T04:11:56;16.23;;;6.53;;
75628;SDS011;64213;46.452;16.994;2023-04-23T04:14:58;14.97;;;6.43;;
75628;SDS011;64213;46.452;16.994;2023-04-23T04:18:00;16.45;;;6.70;;
75628;SDS011;64213;46.452;16.994;2023-04-23T04:21:03;14.85;;;6.95;;
75628;SDS011;64213;46.452;16.994;2023-04-23T04:24:05;14.52;;;6.95;;
75628;SDS011;64213;46.452;16.994;2023-04-23T04:27:07;14.67;;;6.10;;
75628;SDS011;64213;46.452;16.994;2023-04-23T04:30:09;14.47;;;6.07;;
75628;SDS011;64213;46.452;16.994;2023-04-23T04:33:12;14.35;;;6.05;;
75628;SDS011;64213;46.452;16.994;2023-04-23T04:36:15;15.52;;;6.57;;
75628;SDS011;64213;46.452;16.994;2023-04-23T04:39:18;16.35;;;6.40;;
75628;SDS011;64213;46.452;16.994;2023-04-23T04:42:21;19.00;;;6.90;;
75628;SDS011;64213;46.452;16.994;2023-04-23T04:45:23;13.53;;;6.63;;
75628;SDS011;64213;46.452;16.994;2023-04-23T04:48:26;14.07;;;6.18;;
75628;SDS011;64213;46.452;16.994;2023-04-23T04:51:28;16.17;;;6.68;;
75628;SDS011;64213;46.452;16.994;2023-04-23T04:54:30;16.30;;;7.00;;
75628;SDS011;64213;46.452;16.994;2023-04-23T04:57:32;15.17;;;7.13;;
75628;SDS011;64213;46.452;16.994;2023-04-23T05:00:34;15.23;;;7.10;;
75628;SDS011;64213;46.452;16.994;2023-04-23T05:03:37;15.05;;;6.75;;
75628;SDS011;64213;46.452;16.994;2023-04-23T05:06:40;16.08;;;7.20;;
75628;SDS011;64213;46.452;16.994;2023-04-23T05:09:42;16.12;;;7.28;;
75628;SDS011;64213;46.452;16.994;2023-04-23T05:12:45;15.90;;;7.77;;
75628;SDS011;64213;46.452;16.994;2023-04-23T05:15:48;18.17;;;7.97;;
75628;SDS011;64213;46.452;16.994;2023-04-23T05:18:50;16.67;;;8.40;;
75628;SDS011;64213;46.452;16.994;2023-04-23T05:21:52;19.77;;;7.93;;
75628;SDS011;64213;46.452;16.994;2023-04-23T05:24:54;19.70;;;9.00;;
75628;SDS011;64213;46.452;16.994;2023-04-23T05:27:56;17.60;;;8.70;;
75628;SDS011;64213;46.452;16.994;2023-04-23T05:30:59;18.93;;;9.13;;
75628;SDS011;64213;46.452;16.994;2023-04-23T05:34:01;17.23;;;8.20;;
75628;SDS011;64213;46.452;16.994;2023-04-23T05:37:03;19.83;;;8.70;;
75628;SDS011;64213;46.452;16.994;2023-04-23T05:40:06;17.73;;;8.07;;
75628;SDS011;64213;46.452;16.994;2023-04-23T05:43:10;14.37;;;6.70;;
75628;SDS011;64213;46.452;16.994;2023-04-23T05:46:13;14.00;;;6.07;;
75628;SDS011;64213;46.452;16.994;2023-04-23T05:49:15;13.43;;;6.57;;
75628;SDS011;64213;46.452;16.994;2023-04-23T05:52:17;18.70;;;7.47;;
75628;SDS011;64213;46.452;16.994;2023-04-23T05:55:19;14.90;;;7.28;;
75628;SDS011;64213;46.452;16.994;2023-04-23T05:58:22;13.30;;;6.45;;
75628;SDS011;64213;46.452;16.994;2023-04-23T06:01:24;15.10;;;5.77;;
75628;SDS011;64213;46.452;16.994;2023-04-23T06:04:26;14.57;;;6.62;;
75628;SDS011;64213;46.452;16.994;2023-04-23T06:07:28;12.23;;;6.07;;
75628;SDS011;64213;46.452;16.994;2023-04-23T06:10:30;14.05;;;6.53;;
75628;SDS011;64213;46.452;16.994;2023-04-23T06:13:32;14.43;;;6.47;;
75628;SDS011;64213;46.452;16.994;2023-04-23T06:16:44;11.47;;;6.10;;
75628;SDS011;64213;46.452;16.994;2023-04-23T06:19:46;12.45;;;5.70;;
75628;SDS011;64213;46.452;16.994;2023-04-23T06:22:48;12.00;;;5.87;;
75628;SDS011;64213;46.452;16.994;2023-04-23T06:25:50;12.80;;;6.37;;
75628;SDS011;64213;46.452;16.994;2023-04-23T06:28:52;12.32;;;6.28;;
75628;SDS011;64213;46.452;16.994;2023-04-23T06:31:54;12.03;;;5.87;;
75628;SDS011;64213;46.452;16.994;2023-04-23T06:34:57;12.37;;;5.57;;
75628;SDS011;64213;46.452;16.994;2023-04-23T06:38:02;11.52;;;6.15;;
75628;SDS011;64213;46.452;16.994;2023-04-23T06:41:05;11.05;;;4.62;;
75628;SDS011;64213;46.452;16.994;2023-04-23T06:44:07;13.02;;;6.25;;
75628;SDS011;64213;46.452;16.994;2023-04-23T06:47:09;11.93;;;5.80;;
75628;SDS011;64213;46.452;16.994;2023-04-23T06:50:11;12.43;;;5.80;;
75628;SDS011;64213;46.452;16.994;2023-04-23T06:53:13;11.50;;;5.68;;
75628;SDS011;64213;46.452;16.994;2023-04-23T06:56:16;12.75;;;6.03;;
75628;SDS011;64213;46.452;16.994;2023-04-23T06:59:18;11.02;;;5.55;;
75628;SDS011;64213;46.452;16.994;2023-04-23T07:02:20;11.73;;;5.37;;
75628;SDS011;64213;46.452;16.994;2023-04-23T07:05:22;11.27;;;5.45;;
75628;SDS011;64213;46.452;16.994;2023-04-23T07:08:24;12.95;;;5.40;;
75628;SDS011;64213;46.452;16.994;2023-04-23T07:11:26;11.85;;;5.05;;
75628;SDS011;64213;46.452;16.994;2023-04-23T07:14:30;10.73;;;4.78;;
75628;SDS011;64213;46.452;16.994;2023-04-23T07:17:33;12.00;;;4.63;;
75628;SDS011;64213;46.452;16.994;2023-04-23T07:20:35;12.48;;;5.43;;
75628;SDS011;64213;46.452;16.994;2023-04-23T07:23:38;12.00;;;4.45;;
75628;SDS011;64213;46.452;16.994;2023-04-23T07:26:40;11.18;;;4.68;;
75628;SDS011;64213;46.452;16.994;2023-04-23T07:29:45;9.38;;;4.85;;
75628;SDS011;64213;46.452;16.994;2023-04-23T07:32:47;12.23;;;5.20;;
75628;SDS011;64213;46.452;16.994;2023-04-23T07:35:49;10.30;;;4.50;;
75628;SDS011;64213;46.452;16.994;2023-04-23T07:38:52;10.20;;;4.65;;
75628;SDS011;64213;46.452;16.994;2023-04-23T07:41:54;9.43;;;4.43;;
75628;SDS011;64213;46.452;16.994;2023-04-23T07:44:57;8.98;;;4.22;;
75628;SDS011;64213;46.452;16.994;2023-04-23T07:47:59;10.13;;;4.60;;
75628;SDS011;64213;46.452;16.994;2023-04-23T07:51:03;11.00;;;4.40;;
75628;SDS011;64213;46.452;16.994;2023-04-23T07:54:05;12.40;;;4.53;;
75628;SDS011;64213;46.452;16.994;2023-04-23T07:57:07;10.32;;;4.28;;
75628;SDS011;64213;46.452;16.994;2023-04-23T08:00:09;9.60;;;4.40;;
75628;SDS011;64213;46.452;16.994;2023-04-23T08:03:12;9.77;;;4.27;;
75628;SDS011;64213;46.452;16.994;2023-04-23T08:06:15;9.32;;;4.50;;
75628;SDS011;64213;46.452;16.994;2023-04-23T08:09:17;12.43;;;5.00;;
75628;SDS011;64213;46.452;16.994;2023-04-23T08:12:19;9.00;;;4.20;;
75628;SDS011;64213;46.452;16.994;2023-04-23T08:15:21;11.25;;;5.03;;
75628;SDS011;64213;46.452;16.994;2023-04-23T08:18:24;11.53;;;5.27;;
75628;SDS011;64213;46.452;16.994;2023-04-23T08:21:26;10.43;;;4.25;;
75628;SDS011;64213;46.452;16.994;2023-04-23T08:24:29;10.05;;;3.97;;
75628;SDS011;64213;46.452;16.994;2023-04-23T08:27:31;10.43;;;4.95;;
75628;SDS011;64213;46.452;16.994;2023-04-23T08:30:34;10.98;;;4.55;;
75628;SDS011;64213;46.452;16.994;2023-04-23T08:33:36;9.40;;;4.60;;
75628;SDS011;64213;46.452;16.994;2023-04-23T08:36:38;10.05;;;4.80;;
75628;SDS011;64213;46.452;16.994;2023-04-23T08:39:40;10.80;;;3.95;;
75628;SDS011;64213;46.452;16.994;2023-04-23T08:46:00;8.02;;;3.87;;
75628;SDS011;64213;46.452;16.994;2023-04-23T08:49:06;13.07;;;4.30;;
75628;SDS011;64213;46.452;16.994;2023-04-23T08:55:20;10.10;;;4.62;;
75628;SDS011;64213;46.452;16.994;2023-04-23T08:58:23;10.40;;;4.37;;
75628;SDS011;64213;46.452;16.994;2023-04-23T09:01:28;10.20;;;4.90;;
75628;SDS011;64213;46.452;16.994;2023-04-23T09:04:31;11.67;;;4.93;;
75628;SDS011;64213;46.452;16.994;2023-04-23T09:07:34;11.05;;;4.55;;
75628;SDS011;64213;46.452;16.994;2023-04-23T09:10:39;8.80;;;4.25;;
75628;SDS011;64213;46.452;16.994;2023-04-23T09:13:42;10.82;;;4.50;;
75628;SDS011;64213;46.452;16.994;2023-04-23T09:16:44;8.75;;;4.12;;
75628;SDS011;64213;46.452;16.994;2023-04-23T09:19:47;9.57;;;4.73;;
75628;SDS011;64213;46.452;16.994;2023-04-23T09:22:51;11.25;;;4.65;;
75628;SDS011;64213;46.452;16.994;2023-04-23T09:25:54;9.30;;;4.75;;
75628;SDS011;64213;46.452;16.994;2023-04-23T09:28:57;9.40;;;4.70;;
75628;SDS011;64213;46.452;16.994;2023-04-23T09:32:06;10.07;;;4.50;;
75628;SDS011;64213;46.452;16.994;2023-04-23T09:35:14;11.13;;;4.73;;
75628;SDS011;64213;46.452;16.994;2023-04-23T09:38:18;8.43;;;4.07;;
75628;SDS011;64213;46.452;16.994;2023-04-23T09:41:21;10.43;;;4.03;;
75628;SDS011;64213;46.452;16.994;2023-04-23T09:44:23;9.15;;;4.40;;
75628;SDS011;64213;46.452;16.994;2023-04-23T09:47:27;11.18;;;4.25;;
75628;SDS011;64213;46.452;16.994;2023-04-23T09:50:39;10.07;;;4.03;;
75628;SDS011;64213;46.452;16.994;2023-04-23T09:53:41;11.02;;;4.47;;
75628;SDS011;64213;46.452;16.994;2023-04-23T09:56:48;10.48;;;4.70;;
75628;SDS011;64213;46.452;16.994;2023-04-23T09:59:51;10.27;;;4.20;;
75628;SDS011;64213;46.452;16.994;2023-04-23T10:03:11;9.88;;;4.50;;
75628;SDS011;64213;46.452;16.994;2023-04-23T10:06:14;9.37;;;4.43;;
75628;SDS011;64213;46.452;16.994;2023-04-23T10:09:36;11.40;;;4.85;;
75628;SDS011;64213;46.452;16.994;2023-04-23T10:12:38;9.70;;;3.92;;
75628;SDS011;64213;46.452;16.994;2023-04-23T10:15:55;9.40;;;3.92;;
75628;SDS011;64213;46.452;16.994;2023-04-23T10:19:14;10.98;;;4.62;;
75628;SDS011;64213;46.452;16.994;2023-04-23T10:22:20;9.23;;;4.10;;
75628;SDS011;64213;46.452;16.994;2023-04-23T10:25:23;9.27;;;4.15;;
75628;SDS011;64213;46.452;16.994;2023-04-23T10:28:26;9.70;;;4.18;;
75628;SDS011;64213;46.452;16.994;2023-04-23T10:31:33;8.75;;;3.97;;
75628;SDS011;64213;46.452;16.994;2023-04-23T10:34:37;8.70;;;3.95;;
75628;SDS011;64213;46.452;16.994;2023-04-23T10:37:41;9.80;;;4.00;;
75628;SDS011;64213;46.452;16.994;2023-04-23T10:40:45;9.65;;;3.72;;
75628;SDS011;64213;46.452;16.994;2023-04-23T10:43:51;8.27;;;3.65;;
75628;SDS011;64213;46.452;16.994;2023-04-23T10:46:54;9.88;;;4.28;;
75628;SDS011;64213;46.452;16.994;2023-04-23T10:50:00;8.93;;;4.00;;
75628;SDS011;64213;46.452;16.994;2023-04-23T10:53:30;10.33;;;4.37;;
75628;SDS011;64213;46.452;16.994;2023-04-23T10:56:32;8.90;;;3.90;;
75628;SDS011;64213;46.452;16.994;2023-04-23T10:59:38;8.88;;;4.12;;
75628;SDS011;64213;46.452;16.994;2023-04-23T11:02:42;9.35;;;4.30;;
75628;SDS011;64213;46.452;16.994;2023-04-23T11:05:45;10.20;;;4.00;;
75628;SDS011;64213;46.452;16.994;2023-04-23T11:08:51;8.80;;;4.80;;
75628;SDS011;64213;46.452;16.994;2023-04-23T11:11:58;8.55;;;3.67;;
75628;SDS011;64213;46.452;16.994;2023-04-23T11:15:13;8.20;;;4.18;;
75628;SDS011;64213;46.452;16.994;2023-04-23T11:18:16;8.23;;;3.83;;
75628;SDS011;64213;46.452;16.994;2023-04-23T11:21:18;9.88;;;4.32;;
75628;SDS011;64213;46.452;16.994;2023-04-23T11:24:21;8.27;;;4.00;;
75628;SDS011;64213;46.452;16.994;2023-04-23T11:27:24;9.18;;;3.80;;
75628;SDS011;64213;46.452;16.994;2023-04-23T11:30:27;8.18;;;3.87;;
75628;SDS011;64213;46.452;16.994;2023-04-23T11:33:30;10.13;;;4.00;;
75628;SDS011;64213;46.452;16.994;2023-04-23T11:36:32;11.02;;;3.97;;
75628;SDS011;64213;46.452;16.994;2023-04-23T11:39:40;9.97;;;4.63;;
75628;SDS011;64213;46.452;16.994;2023-04-23T11:45:48;11.95;;;3.33;;
75628;SDS011;64213;46.452;16.994;2023-04-23T11:48:50;9.18;;;3.85;;
75628;SDS011;64213;46.452;16.994;2023-04-23T11:51:52;8.52;;;3.90;;
75628;SDS011;64213;46.452;16.994;2023-04-23T11:54:54;9.27;;;3.00;;
75628;SDS011;64213;46.452;16.994;2023-04-23T11:57:56;8.02;;;3.75;;
75628;SDS011;64213;46.452;16.994;2023-04-23T12:00:58;9.77;;;4.43;;
75628;SDS011;64213;46.452;16.994;2023-04-23T12:04:07;9.32;;;4.35;;
75628;SDS011;64213;46.452;16.994;2023-04-23T12:07:11;9.23;;;4.30;;
75628;SDS011;64213;46.452;16.994;2023-04-23T12:10:27;7.90;;;3.77;;
75628;SDS011;64213;46.452;16.994;2023-04-23T12:13:29;8.45;;;3.83;;
75628;SDS011;64213;46.452;16.994;2023-04-23T12:19:40;8.43;;;4.35;;
75628;SDS011;64213;46.452;16.994;2023-04-23T12:22:45;14.18;;;3.80;;
75628;SDS011;64213;46.452;16.994;2023-04-23T12:25:47;8.97;;;3.23;;
75628;SDS011;64213;46.452;16.994;2023-04-23T12:28:50;9.90;;;3.85;;
75628;SDS011;64213;46.452;16.994;2023-04-23T12:31:56;9.00;;;3.65;;
75628;SDS011;64213;46.452;16.994;2023-04-23T12:34:59;9.95;;;4.00;;
75628;SDS011;64213;46.452;16.994;2023-04-23T12:38:03;8.05;;;3.80;;
75628;SDS011;64213;46.452;16.994;2023-04-23T12:41:24;9.20;;;3.43;;
75628;SDS011;64213;46.452;16.994;2023-04-23T12:44:26;9.15;;;3.90;;
75628;SDS011;64213;46.452;16.994;2023-04-23T12:47:28;7.55;;;3.25;;
75628;SDS011;64213;46.452;16.994;2023-04-23T12:50:30;7.65;;;3.45;;
75628;SDS011;64213;46.452;16.994;2023-04-23T12:53:33;8.38;;;3.30;;
75628;SDS011;64213;46.452;16.994;2023-04-23T12:56:35;8.37;;;2.83;;
75628;SDS011;64213;46.452;16.994;2023-04-23T12:59:38;11.50;;;3.33;;
75628;SDS011;64213;46.452;16.994;2023-04-23T13:02:40;10.70;;;3.10;;
75628;SDS011;64213;46.452;16.994;2023-04-23T13:05:43;8.88;;;3.37;;
75628;SDS011;64213;46.452;16.994;2023-04-23T13:08:45;11.63;;;3.50;;
75628;SDS011;64213;46.452;16.994;2023-04-23T13:11:47;8.00;;;3.30;;
75628;SDS011;64213;46.452;16.994;2023-04-23T13:14:50;8.63;;;3.80;;
75628;SDS011;64213;46.452;16.994;2023-04-23T13:17:52;9.20;;;4.15;;
75628;SDS011;64213;46.452;16.994;2023-04-23T13:20:54;9.98;;;3.80;;
75628;SDS011;64213;46.452;16.994;2023-04-23T13:23:58;8.77;;;4.30;;
75628;SDS011;64213;46.452;16.994;2023-04-23T13:27:00;9.17;;;3.50;;
75628;SDS011;64213;46.452;16.994;2023-04-23T13:30:02;9.45;;;4.15;;
75628;SDS011;64213;46.452;16.994;2023-04-23T13:33:04;8.65;;;4.05;;
75628;SDS011;64213;46.452;16.994;2023-04-23T13:36:07;7.65;;;3.47;;
75628;SDS011;64213;46.452;16.994;2023-04-23T13:39:09;9.73;;;4.10;;
75628;SDS011;64213;46.452;16.994;2023-04-23T13:42:14;7.83;;;3.70;;
75628;SDS011;64213;46.452;16.994;2023-04-23T13:45:16;8.68;;;3.85;;
75628;SDS011;64213;46.452;16.994;2023-04-23T13:48:18;10.38;;;3.42;;
75628;SDS011;64213;46.452;16.994;2023-04-23T13:51:21;9.43;;;3.85;;
75628;SDS011;64213;46.452;16.994;2023-04-23T13:54:36;11.12;;;3.90;;
75628;SDS011;64213;46.452;16.994;2023-04-23T13:57:38;10.00;;;4.20;;
75628;SDS011;64213;46.452;16.994;2023-04-23T14:00:41;9.00;;;3.67;;
75628;SDS011;64213;46.452;16.994;2023-04-23T14:03:43;9.73;;;4.00;;
75628;SDS011;64213;46.452;16.994;2023-04-23T14:06:46;9.60;;;4.75;;
75628;SDS011;64213;46.452;16.994;2023-04-23T14:09:47;9.82;;;3.70;;
75628;SDS011;64213;46.452;16.994;2023-04-23T14:12:53;8.20;;;3.20;;
75628;SDS011;64213;46.452;16.994;2023-04-23T14:15:56;8.30;;;3.50;;
75628;SDS011;64213;46.452;16.994;2023-04-23T14:18:59;10.00;;;3.87;;
75628;SDS011;64213;46.452;16.994;2023-04-23T14:22:01;10.55;;;3.80;;
75628;SDS011;64213;46.452;16.994;2023-04-23T14:25:23;10.02;;;4.25;;
75628;SDS011;64213;46.452;16.994;2023-04-23T14:28:46;8.67;;;3.77;;
75628;SDS011;64213;46.452;16.994;2023-04-23T14:31:52;8.85;;;4.00;;
75628;SDS011;64213;46.452;16.994;2023-04-23T14:34:54;9.70;;;4.20;;
75628;SDS011;64213;46.452;16.994;2023-04-23T14:37:56;7.95;;;3.30;;
75628;SDS011;64213;46.452;16.994;2023-04-23T14:40:59;8.80;;;3.50;;
75628;SDS011;64213;46.452;16.994;2023-04-23T14:44:01;8.55;;;3.10;;
75628;SDS011;64213;46.452;16.994;2023-04-23T14:47:03;8.65;;;3.12;;
75628;SDS011;64213;46.452;16.994;2023-04-23T14:50:08;7.68;;;2.70;;
75628;SDS011;64213;46.452;16.994;2023-04-23T14:53:11;9.07;;;2.60;;
75628;SDS011;64213;46.452;16.994;2023-04-23T14:56:13;6.57;;;2.30;;
75628;SDS011;64213;46.452;16.994;2023-04-23T14:59:16;6.60;;;2.37;;
75628;SDS011;64213;46.452;16.994;2023-04-23T15:02:18;6.68;;;2.30;;
75628;SDS011;64213;46.452;16.994;2023-04-23T15:05:20;12.25;;;2.78;;
75628;SDS011;64213;46.452;16.994;2023-04-23T15:08:22;6.55;;;2.12;;
75628;SDS011;64213;46.452;16.994;2023-04-23T15:11:24;6.70;;;2.10;;
75628;SDS011;64213;46.452;16.994;2023-04-23T15:14:30;7.28;;;2.50;;
75628;SDS011;64213;46.452;16.994;2023-04-23T15:17:33;6.40;;;2.25;;
75628;SDS011;64213;46.452;16.994;2023-04-23T15:20:35;6.43;;;2.00;;
75628;SDS011;64213;46.452;16.994;2023-04-23T15:23:37;5.90;;;1.90;;
75628;SDS011;64213;46.452;16.994;2023-04-23T15:26:43;6.87;;;2.00;;
75628;SDS011;64213;46.452;16.994;2023-04-23T15:29:47;6.97;;;2.12;;
75628;SDS011;64213;46.452;16.994;2023-04-23T15:32:49;6.85;;;2.10;;
75628;SDS011;64213;46.452;16.994;2023-04-23T15:35:52;6.35;;;2.28;;
75628;SDS011;64213;46.452;16.994;2023-04-23T15:38:54;7.60;;;2.17;;
75628;SDS011;64213;46.452;16.994;2023-04-23T15:41:56;6.87;;;2.30;;
75628;SDS011;64213;46.452;16.994;2023-04-23T15:44:58;7.62;;;2.50;;
75628;SDS011;64213;46.452;16.994;2023-04-23T15:48:00;7.37;;;2.37;;
75628;SDS011;64213;46.452;16.994;2023-04-23T15:51:03;8.40;;;2.80;;
75628;SDS011;64213;46.452;16.994;2023-04-23T15:54:05;7.93;;;2.60;;
75628;SDS011;64213;46.452;16.994;2023-04-23T15:57:09;7.10;;;2.60;;
75628;SDS011;64213;46.452;16.994;2023-04-23T16:00:11;8.23;;;2.40;;
75628;SDS011;64213;46.452;16.994;2023-04-23T16:03:14;6.75;;;2.75;;
75628;SDS011;64213;46.452;16.994;2023-04-23T16:06:16;11.12;;;3.17;;
75628;SDS011;64213;46.452;16.994;2023-04-23T16:09:19;7.68;;;3.00;;
75628;SDS011;64213;46.452;16.994;2023-04-23T16:12:21;6.80;;;2.53;;
75628;SDS011;64213;46.452;16.994;2023-04-23T16:15:23;7.85;;;2.37;;
75628;SDS011;64213;46.452;16.994;2023-04-23T16:18:26;6.87;;;2.33;;
75628;SDS011;64213;46.452;16.994;2023-04-23T16:21:28;6.70;;;2.40;;
75628;SDS011;64213;46.452;16.994;2023-04-23T16:24:30;6.78;;;2.47;;
75628;SDS011;64213;46.452;16.994;2023-04-23T16:27:32;8.33;;;2.10;;
75628;SDS011;64213;46.452;16.994;2023-04-23T16:30:35;6.78;;;2.12;;
75628;SDS011;64213;46.452;16.994;2023-04-23T16:33:37;9.05;;;2.50;;
75628;SDS011;64213;46.452;16.994;2023-04-23T16:36:41;6.93;;;2.10;;
75628;SDS011;64213;46.452;16.994;2023-04-23T16:39:43;7.35;;;2.50;;
75628;SDS011;64213;46.452;16.994;2023-04-23T16:42:45;7.13;;;2.13;;
75628;SDS011;64213;46.452;16.994;2023-04-23T16:45:49;7.47;;;2.50;;
75628;SDS011;64213;46.452;16.994;2023-04-23T16:48:52;7.10;;;2.50;;
75628;SDS011;64213;46.452;16.994;2023-04-23T16:51:54;9.30;;;2.87;;
75628;SDS011;64213;46.452;16.994;2023-04-23T16:54:58;8.13;;;2.92;;
75628;SDS011;64213;46.452;16.994;2023-04-23T16:58:01;9.40;;;3.80;;
75628;SDS011;64213;46.452;16.994;2023-04-23T17:01:03;11.25;;;4.32;;
75628;SDS011;64213;46.452;16.994;2023-04-23T17:04:06;12.45;;;3.50;;
75628;SDS011;64213;46.452;16.994;2023-04-23T17:07:09;8.48;;;3.53;;
75628;SDS011;64213;46.452;16.994;2023-04-23T17:10:11;10.48;;;4.40;;
75628;SDS011;64213;46.452;16.994;2023-04-23T17:13:16;10.63;;;4.40;;
75628;SDS011;64213;46.452;16.994;2023-04-23T17:16:19;11.20;;;4.00;;
75628;SDS011;64213;46.452;16.994;2023-04-23T17:19:21;9.27;;;3.65;;
75628;SDS011;64213;46.452;16.994;2023-04-23T17:22:24;8.70;;;3.97;;
75628;SDS011;64213;46.452;16.994;2023-04-23T17:25:26;8.57;;;3.65;;
75628;SDS011;64213;46.452;16.994;2023-04-23T17:28:29;7.30;;;2.43;;
75628;SDS011;64213;46.452;16.994;2023-04-23T17:31:32;8.02;;;3.10;;
75628;SDS011;64213;46.452;16.994;2023-04-23T17:34:38;7.57;;;3.12;;
75628;SDS011;64213;46.452;16.994;2023-04-23T17:37:41;12.27;;;4.70;;
75628;SDS011;64213;46.452;16.994;2023-04-23T17:40:53;21.87;;;8.20;;
75628;SDS011;64213;46.452;16.994;2023-04-23T17:43:56;8.47;;;3.20;;
75628;SDS011;64213;46.452;16.994;2023-04-23T17:47:00;8.27;;;2.78;;
75628;SDS011;64213;46.452;16.994;2023-04-23T17:50:03;7.55;;;2.97;;
75628;SDS011;64213;46.452;16.994;2023-04-23T17:53:11;8.85;;;3.00;;
75628;SDS011;64213;46.452;16.994;2023-04-23T17:56:14;7.70;;;3.10;;
75628;SDS011;64213;46.452;16.994;2023-04-23T17:59:17;13.80;;;3.70;;
75628;SDS011;64213;46.452;16.994;2023-04-23T18:02:19;9.20;;;3.87;;
75628;SDS011;64213;46.452;16.994;2023-04-23T18:05:22;9.15;;;3.30;;
75628;SDS011;64213;46.452;16.994;2023-04-23T18:08:25;9.90;;;3.28;;
75628;SDS011;64213;46.452;16.994;2023-04-23T18:11:29;7.40;;;2.80;;